createdAt,value
2023-03-24T00:01:30.396Z,60791.28
2023-03-24T00:03:57.411Z,60700.16
2023-03-24T00:06:24.116Z,60644.25
2023-03-24T00:08:50.695Z,60741.59
2023-03-24T00:11:18.675Z,60946.63
2023-03-24T00:13:47.034Z,61035.72
2023-03-24T00:16:17.083Z,61004.63
2023-03-24T00:18:43.682Z,61354.72
2023-03-24T00:21:11.527Z,61588.81
2023-03-24T00:23:38.150Z,61381.63
2023-03-24T00:26:08.875Z,61445.84
2023-03-24T00:28:36.847Z,61905.78
2023-03-24T00:31:04.147Z,61996.94
2023-03-24T00:33:35.011Z,62676.56
2023-03-24T00:36:02.108Z,63117.97
2023-03-24T00:38:28.466Z,63822.69
2023-03-24T00:40:58.842Z,64027.88
2023-03-24T00:43:25.142Z,64954.59
2023-03-24T00:45:57.400Z,65327.81
2023-03-24T00:48:24.323Z,65740.50
2023-03-24T00:50:51.504Z,66441.50
2023-03-24T00:53:18.521Z,66339.88
2023-03-24T00:55:46.081Z,66636.50
2023-03-24T00:58:17.922Z,66713.25
2023-03-24T01:00:48.353Z,66883.34
2023-03-24T01:03:14.993Z,67848.06
2023-03-24T01:05:41.507Z,68348.13
2023-03-24T01:08:08.503Z,69149.25
2023-03-24T01:10:42.485Z,69688.94
2023-03-24T01:13:10.250Z,70183.00
2023-03-24T01:15:36.583Z,71140.22
2023-03-24T01:18:02.931Z,72891.22
2023-03-24T01:20:40.582Z,74555.66
2023-03-24T01:23:07.434Z,75089.84
2023-03-24T01:25:37.296Z,76420.41
2023-03-24T01:28:03.724Z,76952.78
2023-03-24T01:30:30.625Z,76420.41
2023-03-24T01:32:57.244Z,75622.03
2023-03-24T01:35:26.839Z,74823.78
2023-03-24T01:37:54.811Z,74557.75
2023-03-24T01:40:25.670Z,74104.69
2023-03-24T01:42:52.037Z,74162.88
2023-03-24T01:45:37.210Z,74291.72
2023-03-24T01:48:03.804Z,72779.03
2023-03-24T01:50:30.135Z,72936.91
2023-03-24T01:52:56.450Z,72112.22
2023-03-24T01:55:22.783Z,71163.06
2023-03-24T01:57:50.188Z,69950.50
2023-03-24T02:00:18.101Z,69365.09
2023-03-24T02:02:45.967Z,70963.72
2023-03-24T02:05:12.908Z,70531.81
2023-03-24T02:07:52.121Z,71428.88
2023-03-24T02:10:18.986Z,72070.66
2023-03-24T02:12:45.398Z,72916.13
2023-03-24T02:15:12.483Z,73716.06
2023-03-24T02:17:39.266Z,73635.03
2023-03-24T02:20:23.939Z,73759.72
2023-03-24T02:23:10.285Z,73988.28
2023-03-24T02:25:48.618Z,74100.53
2023-03-24T02:28:15.403Z,73797.13
2023-03-24T02:30:51.059Z,73408.53
2023-03-24T02:33:25.095Z,72022.88
2023-03-24T02:36:10.277Z,72130.91
2023-03-24T02:38:45.540Z,71570.13
2023-03-24T02:41:23.570Z,71545.19
2023-03-24T02:43:57.398Z,72006.28
2023-03-24T02:46:24.952Z,72187.00
2023-03-24T02:48:59.495Z,73034.56
2023-03-24T02:51:31.992Z,71921.13
2023-03-24T02:54:01.576Z,71142.31
2023-03-24T02:56:46.562Z,71505.72
2023-03-24T02:59:17.438Z,70380.25
2023-03-24T03:02:04.019Z,68825.47
2023-03-24T03:04:34.535Z,69367.19
2023-03-24T03:07:02.660Z,68989.41
2023-03-24T03:09:29.015Z,67049.28
2023-03-24T03:11:56.321Z,65732.19
2023-03-24T03:14:25.302Z,64529.56
2023-03-24T03:16:53.444Z,63824.75
2023-03-24T03:19:24.479Z,63082.75
2023-03-24T03:21:50.832Z,62676.56
2023-03-24T03:24:39.092Z,61992.78
2023-03-24T03:27:08.291Z,62365.75
2023-03-24T03:29:36.812Z,61280.13
2023-03-24T03:32:12.650Z,59770.31
2023-03-24T03:34:44.240Z,58188.59
2023-03-24T03:37:29.473Z,57441.44
2023-03-24T03:39:59.167Z,56599.25
2023-03-24T03:42:28.096Z,56121.31
2023-03-24T03:44:54.400Z,55984.78
2023-03-24T03:47:22.809Z,55678.63
2023-03-24T03:49:49.667Z,55575.19
2023-03-24T03:52:16.244Z,55376.63
2023-03-24T03:54:42.622Z,55248.38
2023-03-24T03:57:09.282Z,55091.19
2023-03-24T03:59:36.444Z,55064.31
2023-03-24T04:02:26.814Z,54952.63
2023-03-24T04:05:14.089Z,54946.41
2023-03-24T04:07:43.377Z,54840.94
2023-03-24T04:10:15.624Z,54754.06
2023-03-24T04:13:14.582Z,54756.13
2023-03-24T04:15:50.395Z,54650.66
2023-03-24T04:18:22.793Z,54706.50
2023-03-24T04:21:09.909Z,54733.41
2023-03-24T04:23:39.962Z,54741.66
2023-03-24T04:26:14.661Z,54681.69
2023-03-24T04:28:43.988Z,54756.13
2023-03-24T04:31:14.362Z,54807.84
2023-03-24T04:33:40.806Z,54811.97
2023-03-24T04:36:18.729Z,54853.34
2023-03-24T04:38:46.113Z,54884.38
2023-03-24T04:41:13.650Z,54931.94
2023-03-24T04:43:43.449Z,54801.63
2023-03-24T04:46:09.786Z,54838.88
2023-03-24T04:48:36.494Z,54851.28
2023-03-24T04:51:03.504Z,54838.88
2023-03-24T04:53:30.003Z,54878.16
2023-03-24T04:56:04.971Z,54692.03
2023-03-24T04:58:31.352Z,54646.53
2023-03-24T05:00:58.609Z,54474.88
2023-03-24T05:03:25.708Z,54491.44
2023-03-24T05:05:52.225Z,54396.31
2023-03-24T05:08:18.916Z,54284.66
2023-03-24T05:10:45.480Z,54181.25
2023-03-24T05:13:12.320Z,54175.06
2023-03-24T05:15:38.692Z,54170.91
2023-03-24T05:18:05.578Z,54119.22
2023-03-24T05:20:32.122Z,54075.78
2023-03-24T05:22:58.454Z,54030.31
2023-03-24T05:25:24.857Z,53982.75
2023-03-24T05:27:51.246Z,53964.16
2023-03-24T05:30:20.156Z,53986.88
2023-03-24T05:32:47.294Z,53964.16
2023-03-24T05:35:13.959Z,53976.53
2023-03-24T05:37:40.617Z,54017.91
2023-03-24T05:40:07.617Z,54046.84
2023-03-24T05:42:33.936Z,54032.38
2023-03-24T05:45:00.250Z,54030.31
2023-03-24T05:47:27.182Z,53997.22
2023-03-24T05:49:53.606Z,54055.13
2023-03-24T05:52:20.699Z,54042.72
2023-03-24T05:54:49.297Z,54019.97
2023-03-24T05:57:16.146Z,53997.22
2023-03-24T05:59:42.437Z,54001.34
2023-03-24T06:02:08.763Z,53962.06
2023-03-24T06:04:35.208Z,53926.94
2023-03-24T06:07:02.713Z,53922.78
2023-03-24T06:09:29.465Z,53935.19
2023-03-24T06:11:56.279Z,53960.00
2023-03-24T06:14:22.640Z,53906.25
2023-03-24T06:16:51.831Z,53881.44
2023-03-24T06:19:18.984Z,53844.22
2023-03-24T06:21:50.452Z,53848.34
2023-03-24T06:24:18.048Z,53813.19
2023-03-24T06:26:49.975Z,53751.19
2023-03-24T06:29:19.714Z,53740.84
2023-03-24T06:31:48.574Z,53761.50
2023-03-24T06:34:14.885Z,53755.31
2023-03-24T06:36:41.178Z,53693.28
2023-03-24T06:39:07.602Z,53705.69
2023-03-24T06:41:34.308Z,53676.75
2023-03-24T06:44:01.112Z,53691.22
2023-03-24T06:46:27.486Z,53658.13
2023-03-24T06:48:57.030Z,53662.28
2023-03-24T06:51:23.326Z,53687.09
2023-03-24T06:53:49.622Z,53682.94
2023-03-24T06:56:18.148Z,53697.41
2023-03-24T06:58:44.729Z,53687.09
2023-03-24T07:01:11.382Z,53732.56
2023-03-24T07:03:38.468Z,53701.56
2023-03-24T07:06:05.433Z,53697.41
2023-03-24T07:08:38.256Z,53678.81
2023-03-24T07:11:06.040Z,53709.81
2023-03-24T07:13:32.432Z,53689.16
2023-03-24T07:15:58.739Z,53660.19
2023-03-24T07:18:25.093Z,53643.66
2023-03-24T07:20:51.584Z,53676.75
2023-03-24T07:23:17.896Z,53660.19
2023-03-24T07:25:44.810Z,53645.72
2023-03-24T07:28:11.404Z,53666.41
2023-03-24T07:30:40.996Z,53645.72
2023-03-24T07:33:07.972Z,53649.88
2023-03-24T07:35:35.155Z,53637.47
2023-03-24T07:38:01.490Z,53639.53
2023-03-24T07:40:27.900Z,53627.13
2023-03-24T07:42:54.295Z,53699.50
2023-03-24T07:45:20.648Z,53625.06
2023-03-24T07:47:47.057Z,53629.19
2023-03-24T07:50:13.740Z,53635.41
2023-03-24T07:52:40.761Z,53658.13
2023-03-24T07:55:09.740Z,53660.19
2023-03-24T07:57:37.588Z,53612.66
2023-03-24T08:00:14.585Z,53616.78
2023-03-24T08:02:41.744Z,53631.25
2023-03-24T08:05:10.645Z,53616.78
2023-03-24T08:07:37.037Z,53633.31
2023-03-24T08:10:04.170Z,53658.13
2023-03-24T08:12:30.617Z,53635.41
2023-03-24T08:14:56.950Z,53649.88
2023-03-24T08:17:23.267Z,53685.00
2023-03-24T08:20:00.142Z,53680.88
2023-03-24T08:22:27.945Z,53680.88
2023-03-24T08:24:54.331Z,53680.88
2023-03-24T08:27:20.643Z,53645.72
2023-03-24T08:29:47.001Z,53658.13
2023-03-24T08:32:13.734Z,53668.47
2023-03-24T08:34:40.238Z,53682.94
2023-03-24T08:37:07.084Z,53693.28
2023-03-24T08:39:35.774Z,53662.28
2023-03-24T08:42:02.427Z,53682.94
2023-03-24T08:44:30.573Z,53649.88
2023-03-24T08:46:58.022Z,53680.88
2023-03-24T08:49:24.293Z,53685.00
2023-03-24T08:51:50.704Z,53668.47
2023-03-24T08:54:17.372Z,53672.59
2023-03-24T08:56:43.696Z,53658.13
2023-03-24T08:59:10.058Z,53662.28
2023-03-24T09:01:36.403Z,53682.94
2023-03-24T09:04:03.922Z,53689.16
2023-03-24T09:06:30.953Z,53666.41
2023-03-24T09:08:57.263Z,53691.22
2023-03-24T09:11:24.977Z,53662.28
2023-03-24T09:13:51.320Z,53668.47
2023-03-24T09:16:18.124Z,53680.88
2023-03-24T09:18:44.675Z,53697.41
2023-03-24T09:21:11.014Z,53695.34
2023-03-24T09:23:37.308Z,53596.13
2023-03-24T09:26:03.851Z,53658.13
2023-03-24T09:28:30.299Z,53672.59
2023-03-24T09:31:00.852Z,53645.72
2023-03-24T09:33:29.451Z,53678.81
2023-03-24T09:35:58.572Z,53695.34
2023-03-24T09:38:26.427Z,53672.59
2023-03-24T09:40:57.832Z,53668.47
2023-03-24T09:43:44.032Z,53678.81
2023-03-24T09:46:11.929Z,53691.22
2023-03-24T09:48:39.658Z,53666.41
2023-03-24T09:51:10.323Z,53676.75
2023-03-24T09:53:47.130Z,53687.09
2023-03-24T09:56:14.218Z,53664.34
2023-03-24T09:58:43.488Z,53699.50
2023-03-24T10:01:14.440Z,53672.59
2023-03-24T10:03:41.334Z,53647.81
2023-03-24T10:06:21.725Z,53674.69
2023-03-24T10:08:50.374Z,53658.13
2023-03-24T10:11:26.781Z,53670.53
2023-03-24T10:14:15.119Z,53670.53
2023-03-24T10:16:45.877Z,53674.69
2023-03-24T10:19:12.156Z,53666.41
2023-03-24T10:21:38.484Z,53705.69
2023-03-24T10:24:04.854Z,53656.06
2023-03-24T10:26:40.223Z,53637.47
2023-03-24T10:29:06.501Z,53680.88
2023-03-24T10:31:33.169Z,53641.59
2023-03-24T10:33:59.495Z,53666.41
2023-03-24T10:36:25.805Z,53687.09
2023-03-24T10:38:52.119Z,53674.69
2023-03-24T10:41:20.058Z,53643.66
2023-03-24T10:43:46.677Z,53666.41
2023-03-24T10:46:14.352Z,53674.69
2023-03-24T10:48:42.372Z,53664.34
2023-03-24T10:51:19.457Z,53656.06
2023-03-24T10:53:48.517Z,53651.94
2023-03-24T10:56:38.288Z,53668.47
2023-03-24T10:59:06.476Z,53674.69
2023-03-24T11:01:35.072Z,53687.09
2023-03-24T11:04:04.425Z,53689.16
2023-03-24T11:06:30.814Z,53687.09
2023-03-24T11:09:10.439Z,53656.06
2023-03-24T11:11:36.824Z,53687.09
2023-03-24T11:14:03.445Z,53645.72
2023-03-24T11:16:36.794Z,53682.94
2023-03-24T11:19:04.258Z,53695.34
2023-03-24T11:21:31.397Z,53660.19
2023-03-24T11:23:59.028Z,53672.59
2023-03-24T11:26:30.552Z,53672.59
2023-03-24T11:29:09.939Z,53664.34
2023-03-24T11:31:39.107Z,53691.22
2023-03-24T11:34:09.242Z,53699.50
2023-03-24T11:36:40.033Z,53678.81
2023-03-24T11:39:06.347Z,53695.34
2023-03-24T11:41:32.665Z,53676.75
2023-03-24T11:44:18.431Z,53699.50
2023-03-24T11:46:45.276Z,53674.69
2023-03-24T11:49:12.170Z,53697.41
2023-03-24T11:51:38.866Z,53680.88
2023-03-24T11:54:06.889Z,53693.28
2023-03-24T11:56:36.357Z,53693.28
2023-03-24T11:59:05.869Z,53676.75
2023-03-24T12:01:33.485Z,53691.22
2023-03-24T12:04:15.566Z,53701.56
2023-03-24T12:06:41.928Z,53662.28
2023-03-24T12:09:27.443Z,53699.50
2023-03-24T12:12:08.480Z,53658.13
2023-03-24T12:14:54.450Z,53656.06
2023-03-24T12:17:24.499Z,53674.69
2023-03-24T12:19:53.819Z,53678.81
2023-03-24T12:22:27.182Z,53666.41
2023-03-24T12:24:53.543Z,53734.63
2023-03-24T12:27:24.370Z,53666.41
2023-03-24T12:30:07.813Z,53742.91
2023-03-24T12:32:41.510Z,53680.88
2023-03-24T12:35:31.457Z,53687.09
2023-03-24T12:38:11.949Z,53666.41
2023-03-24T12:40:54.033Z,53687.09
2023-03-24T12:43:26.619Z,53716.03
2023-03-24T12:45:56.267Z,53697.41
2023-03-24T12:48:33.533Z,53680.88
2023-03-24T12:51:06.200Z,53689.16
2023-03-24T12:53:41.548Z,53670.53
2023-03-24T12:56:46.757Z,53701.56
2023-03-24T12:59:13.065Z,53734.63
2023-03-24T13:01:43.649Z,53691.22
2023-03-24T13:04:20.990Z,53726.38
2023-03-24T13:06:54.492Z,53724.28
2023-03-24T13:09:20.943Z,53678.81
2023-03-24T13:11:50.068Z,53687.09
2023-03-24T13:14:19.040Z,53674.69
2023-03-24T13:16:46.220Z,53703.63
2023-03-24T13:19:23.046Z,53687.09
2023-03-24T13:21:49.470Z,53720.16
2023-03-24T13:24:16.116Z,53724.28
2023-03-24T13:26:51.840Z,53718.09
2023-03-24T13:29:45.681Z,53699.50
2023-03-24T13:32:14.551Z,53699.50
2023-03-24T13:35:03.728Z,53720.16
2023-03-24T13:37:35.595Z,53709.81
2023-03-24T13:40:02.212Z,53674.69
2023-03-24T13:42:32.468Z,53691.22
2023-03-24T13:45:03.955Z,53689.16
2023-03-24T13:47:49.818Z,53709.81
2023-03-24T13:50:16.187Z,53734.63
2023-03-24T13:52:48.980Z,53716.03
2023-03-24T13:55:22.717Z,53699.50
2023-03-24T13:57:59.334Z,53701.56
2023-03-24T14:00:26.326Z,53707.75
2023-03-24T14:02:58.133Z,53716.03
2023-03-24T14:05:33.844Z,53736.69
2023-03-24T14:08:00.135Z,53751.19
2023-03-24T14:10:26.445Z,53786.31
2023-03-24T14:12:53.558Z,53926.94
2023-03-24T14:15:21.001Z,54119.22
2023-03-24T14:17:48.195Z,54400.44
2023-03-24T14:20:25.733Z,54528.66
2023-03-24T14:22:52.540Z,54754.06
2023-03-24T14:25:18.841Z,55006.38
2023-03-24T14:27:45.881Z,55209.09
2023-03-24T14:30:18.296Z,55167.72
2023-03-24T14:32:45.914Z,54913.31
2023-03-24T14:35:24.092Z,54507.97
2023-03-24T14:37:54.612Z,54594.84
2023-03-24T14:40:41.626Z,54609.31
2023-03-24T14:43:28.201Z,54867.81
2023-03-24T14:46:00.665Z,54714.78
2023-03-24T14:48:28.439Z,54644.47
2023-03-24T14:50:55.014Z,54723.06
2023-03-24T14:53:21.590Z,54675.50
2023-03-24T14:55:48.187Z,54594.84
2023-03-24T14:58:17.705Z,54518.31
2023-03-24T15:00:51.738Z,54317.72
2023-03-24T15:03:31.855Z,54164.72
2023-03-24T15:06:11.868Z,54214.34
2023-03-24T15:08:38.250Z,54216.41
2023-03-24T15:11:05.741Z,54220.53
2023-03-24T15:13:32.055Z,54239.16
2023-03-24T15:15:58.458Z,54152.31
2023-03-24T15:18:25.707Z,54150.25
2023-03-24T15:20:52.715Z,54133.69
2023-03-24T15:23:20.135Z,54075.78
2023-03-24T15:25:49.331Z,54061.31
2023-03-24T15:28:21.567Z,54057.19
2023-03-24T15:30:48.766Z,54127.50
2023-03-24T15:33:15.274Z,54148.16
2023-03-24T15:35:41.620Z,54175.06
2023-03-24T15:38:17.657Z,54183.31
2023-03-24T15:40:51.573Z,54237.09
2023-03-24T15:43:19.322Z,54317.72
2023-03-24T15:45:55.296Z,54443.88
2023-03-24T15:48:30.714Z,54357.03
2023-03-24T15:50:58.378Z,54284.66
2023-03-24T15:53:26.836Z,54084.06
2023-03-24T15:56:06.431Z,54069.59
2023-03-24T15:58:42.457Z,54065.47
2023-03-24T16:01:10.114Z,54108.88
2023-03-24T16:03:36.577Z,54137.84
2023-03-24T16:06:03.389Z,54177.13
2023-03-24T16:08:30.760Z,54179.19
2023-03-24T16:11:01.080Z,54079.94
2023-03-24T16:13:27.419Z,54042.72
2023-03-24T16:15:56.808Z,54104.75
2023-03-24T16:18:27.730Z,54100.63
2023-03-24T16:20:54.110Z,54022.03
2023-03-24T16:23:20.465Z,54067.53
2023-03-24T16:25:46.986Z,54046.84
2023-03-24T16:28:13.975Z,53929.00
2023-03-24T16:30:40.528Z,53918.66
2023-03-24T16:33:07.336Z,53858.69
2023-03-24T16:35:34.352Z,53875.22
2023-03-24T16:38:00.669Z,53875.22
2023-03-24T16:40:40.597Z,53838.00
2023-03-24T16:43:07.024Z,53844.22
2023-03-24T16:45:33.471Z,53840.09
2023-03-24T16:47:59.803Z,53840.09
2023-03-24T16:50:33.729Z,53813.19
2023-03-24T16:53:04.571Z,53807.00
2023-03-24T16:55:31.601Z,53821.47
2023-03-24T16:57:57.958Z,53767.72
2023-03-24T17:00:24.311Z,53742.91
2023-03-24T17:02:53.668Z,53778.06
2023-03-24T17:05:21.988Z,53769.78
2023-03-24T17:07:48.378Z,53809.06
2023-03-24T17:10:14.752Z,53794.59
2023-03-24T17:12:41.133Z,53804.94
2023-03-24T17:15:07.742Z,53769.78
2023-03-24T17:17:34.769Z,53792.53
2023-03-24T17:20:02.174Z,53829.75
2023-03-24T17:22:30.320Z,53794.59
2023-03-24T17:24:58.193Z,53794.59
2023-03-24T17:27:24.551Z,53821.47
2023-03-24T17:29:51.423Z,53813.19
2023-03-24T17:32:18.198Z,53825.59
2023-03-24T17:34:45.873Z,53821.47
2023-03-24T17:37:12.334Z,53835.94
2023-03-24T17:39:39.132Z,53804.94
2023-03-24T17:42:05.463Z,53821.47
2023-03-24T17:44:32.525Z,53807.00
2023-03-24T17:46:58.909Z,53823.53
2023-03-24T17:49:25.276Z,53817.34
2023-03-24T17:51:51.561Z,53829.75
2023-03-24T17:54:20.290Z,53825.59
2023-03-24T17:56:46.745Z,53804.94
2023-03-24T17:59:13.071Z,53800.81
2023-03-24T18:01:40.207Z,53809.06
2023-03-24T18:04:06.897Z,53827.69
2023-03-24T18:06:35.862Z,53825.59
2023-03-24T18:09:02.156Z,53821.47
2023-03-24T18:11:28.474Z,53831.81
2023-03-24T18:13:54.792Z,53840.09
2023-03-24T18:16:22.332Z,53835.94
2023-03-24T18:18:51.421Z,53827.69
2023-03-24T18:21:17.905Z,53850.41
2023-03-24T18:23:46.188Z,53823.53
2023-03-24T18:26:12.544Z,53848.34
2023-03-24T18:28:39.058Z,53840.09
2023-03-24T18:31:15.647Z,53869.03
2023-03-24T18:33:42.951Z,53825.59
2023-03-24T18:36:10.204Z,53850.41
2023-03-24T18:38:36.615Z,53871.09
2023-03-24T18:41:03.922Z,53893.84
2023-03-24T18:43:30.569Z,53877.31
2023-03-24T18:45:57.147Z,53885.56
2023-03-24T18:48:23.906Z,53860.75
2023-03-24T18:50:51.719Z,53885.56
2023-03-24T18:53:22.075Z,53879.38
2023-03-24T18:55:50.271Z,53918.66
2023-03-24T18:58:17.172Z,53922.78
2023-03-24T19:00:49.498Z,53914.53
2023-03-24T19:03:16.147Z,53893.84
2023-03-24T19:05:42.607Z,53920.72
2023-03-24T19:08:08.967Z,53906.25
2023-03-24T19:10:35.703Z,53931.06
2023-03-24T19:13:05.244Z,53922.78
2023-03-24T19:15:32.040Z,53897.97
2023-03-24T19:17:59.608Z,53931.06
2023-03-24T19:20:27.418Z,53933.13
2023-03-24T19:22:53.956Z,53918.66
2023-03-24T19:25:20.995Z,53943.47
2023-03-24T19:27:47.524Z,53931.06
2023-03-24T19:30:13.852Z,53947.59
2023-03-24T19:32:40.567Z,53939.34
2023-03-24T19:35:07.091Z,53951.75
2023-03-24T19:37:33.590Z,53926.94
2023-03-24T19:40:00.436Z,53974.47
2023-03-24T19:42:28.332Z,53935.19
2023-03-24T19:44:54.861Z,53920.72
2023-03-24T19:47:21.428Z,53922.78
2023-03-24T19:49:47.692Z,53931.06
2023-03-24T19:52:14.050Z,53933.13
2023-03-24T19:54:40.370Z,53912.44
2023-03-24T19:57:06.698Z,53918.66
2023-03-24T19:59:33.564Z,53895.91
2023-03-24T20:01:59.908Z,53897.97
2023-03-24T20:04:26.365Z,53883.50
2023-03-24T20:06:52.671Z,53895.91
2023-03-24T20:09:18.959Z,53887.63
2023-03-24T20:11:45.326Z,53904.19
2023-03-24T20:14:11.937Z,53889.72
2023-03-24T20:16:38.251Z,53902.13
2023-03-24T20:19:04.576Z,53933.13
2023-03-24T20:21:31.293Z,53889.72
2023-03-24T20:23:57.974Z,53910.38
2023-03-24T20:26:24.316Z,53910.38
2023-03-24T20:28:51.213Z,53904.19
2023-03-24T20:31:17.730Z,53906.25
2023-03-24T20:33:44.012Z,53926.94
2023-03-24T20:36:10.608Z,53929.00
2023-03-24T20:38:36.991Z,53918.66
2023-03-24T20:41:05.286Z,53914.53
2023-03-24T20:43:35.576Z,53904.19
2023-03-24T20:46:02.619Z,53918.66
2023-03-24T20:48:29.045Z,53887.63
2023-03-24T20:50:55.382Z,53871.09
2023-03-24T20:53:21.745Z,53840.09
2023-03-24T20:56:01.171Z,53844.22
2023-03-24T20:58:27.799Z,53825.59
2023-03-24T21:00:54.717Z,53823.53
2023-03-24T21:03:21.282Z,53844.22
2023-03-24T21:05:47.674Z,53827.69
2023-03-24T21:08:14.054Z,53831.81
2023-03-24T21:10:40.431Z,53821.47
2023-03-24T21:13:08.602Z,53815.28
2023-03-24T21:15:35.605Z,53811.13
2023-03-24T21:18:01.939Z,53802.88
2023-03-24T21:20:28.332Z,53790.47
2023-03-24T21:22:55.444Z,53786.31
2023-03-24T21:25:26.179Z,53821.47
2023-03-24T21:27:52.911Z,53800.81
2023-03-24T21:30:19.372Z,53807.00
2023-03-24T21:32:49.335Z,53802.88
2023-03-24T21:35:16.082Z,53819.41
2023-03-24T21:37:45.470Z,53807.00
2023-03-24T21:40:12.888Z,53819.41
2023-03-24T21:42:41.360Z,53848.34
2023-03-24T21:45:08.705Z,53821.47
2023-03-24T21:47:36.145Z,53848.34
2023-03-24T21:50:04.110Z,53831.81
2023-03-24T21:52:30.451Z,53829.75
2023-03-24T21:54:58.638Z,53844.22
2023-03-24T21:57:25.031Z,53854.56
2023-03-24T21:59:51.328Z,53869.03
2023-03-24T22:02:18.340Z,53835.94
2023-03-24T22:04:46.302Z,53869.03
2023-03-24T22:07:13.720Z,53844.22
2023-03-24T22:09:40.481Z,53866.97
2023-03-24T22:12:06.837Z,53877.31
2023-03-24T22:14:33.116Z,53871.09
2023-03-24T22:16:59.507Z,53856.63
2023-03-24T22:19:26.150Z,53860.75
2023-03-24T22:22:00.234Z,53852.50
2023-03-24T22:24:29.016Z,53848.34
2023-03-24T22:26:58.530Z,53840.09
2023-03-24T22:29:31.121Z,53831.81
2023-03-24T22:31:57.505Z,53848.34
2023-03-24T22:34:23.878Z,53856.63
2023-03-24T22:36:50.349Z,53821.47
2023-03-24T22:39:16.840Z,53835.94
2023-03-24T22:41:45.998Z,53794.59
2023-03-24T22:44:12.338Z,53871.09
2023-03-24T22:46:38.808Z,53848.34
2023-03-24T22:49:05.162Z,53887.63
2023-03-24T22:51:31.576Z,53875.22
2023-03-24T22:53:57.902Z,53881.44
2023-03-24T22:56:24.212Z,53854.56
2023-03-24T22:58:55.225Z,53850.41
2023-03-24T23:01:21.580Z,53924.84
2023-03-24T23:03:50.612Z,53904.19
2023-03-24T23:06:16.952Z,53939.34
2023-03-24T23:08:43.531Z,53960.00
2023-03-24T23:11:10.840Z,53895.91
2023-03-24T23:13:38.721Z,53922.78
2023-03-24T23:16:05.486Z,53960.00
2023-03-24T23:18:31.913Z,53943.47
2023-03-24T23:21:02.505Z,53910.38
2023-03-24T23:23:29.977Z,53924.84
2023-03-24T23:25:59.656Z,53968.28
2023-03-24T23:28:26.087Z,53951.75
2023-03-24T23:30:55.731Z,53931.06
2023-03-24T23:33:22.166Z,53960.00
2023-03-24T23:35:50.677Z,53929.00
2023-03-24T23:38:17.713Z,53955.88
2023-03-24T23:40:48.156Z,53924.84
2023-03-24T23:43:14.644Z,53904.19
2023-03-24T23:45:41.253Z,53904.19
2023-03-24T23:48:19.744Z,53900.03
2023-03-24T23:50:51.486Z,53902.13
2023-03-24T23:53:20.306Z,53908.31
2023-03-24T23:56:02.552Z,53895.91
2023-03-24T23:58:31.874Z,53881.44
